createdAt,value
2018-01-16T00:00:05.821Z,928.22
2018-01-16T00:00:18.865Z,928.28
2018-01-16T00:00:31.927Z,928.26
2018-01-16T00:00:44.967Z,928.26
2018-01-16T00:00:57.572Z,928.27
2018-01-16T00:01:10.451Z,928.27
2018-01-16T00:01:22.822Z,928.27
2018-01-16T00:01:35.450Z,928.26
2018-01-16T00:01:47.977Z,928.26
2018-01-16T00:02:00.560Z,928.25
2018-01-16T00:02:13.653Z,928.27
2018-01-16T00:02:26.734Z,928.29
2018-01-16T00:02:38.913Z,928.31
2018-01-16T00:02:51.530Z,928.28
2018-01-16T00:03:04.020Z,928.3
2018-01-16T00:03:17.188Z,928.33
2018-01-16T00:03:29.300Z,928.3
2018-01-16T00:03:42.331Z,928.31
2018-01-16T00:04:12.323Z,928.32
2018-01-16T00:04:25.309Z,928.32
2018-01-16T00:04:37.371Z,928.34
2018-01-16T00:04:49.970Z,928.34
2018-01-16T00:05:02.532Z,928.36
2018-01-16T00:05:15.567Z,928.35
2018-01-16T00:05:28.119Z,928.35
2018-01-16T00:05:41.202Z,928.33
2018-01-16T00:05:53.767Z,928.37
2018-01-16T00:06:06.849Z,928.37
2018-01-16T00:06:19.949Z,928.37
2018-01-16T00:06:32.107Z,928.38
2018-01-16T00:06:44.691Z,928.37
2018-01-16T00:06:57.315Z,928.34
2018-01-16T00:07:10.325Z,928.4
2018-01-16T00:07:22.886Z,928.41
2018-01-16T00:07:35.900Z,928.36
2018-01-16T00:07:49.003Z,928.39
2018-01-16T00:08:01.523Z,928.37
2018-01-16T00:08:14.635Z,928.39
2018-01-16T00:08:27.296Z,928.41
2018-01-16T00:08:39.795Z,928.4
2018-01-16T00:08:52.843Z,928.43
2018-01-16T00:09:05.862Z,928.45
2018-01-16T00:09:18.489Z,928.43
2018-01-16T00:09:31.590Z,928.41
2018-01-16T00:09:44.165Z,928.45
2018-01-16T00:09:56.282Z,928.44
2018-01-16T00:10:08.874Z,928.41
2018-01-16T00:10:20.538Z,928.44
2018-01-16T00:10:33.641Z,928.45
2018-01-16T00:10:46.673Z,928.46
2018-01-16T00:10:59.279Z,928.49
2018-01-16T00:11:11.411Z,928.51
2018-01-16T00:11:24.508Z,928.5
2018-01-16T00:11:37.526Z,928.5
2018-01-16T00:11:50.111Z,928.52
2018-01-16T00:12:03.109Z,928.53
2018-01-16T00:12:15.731Z,928.52
2018-01-16T00:12:28.788Z,928.51
2018-01-16T00:12:40.911Z,928.49
2018-01-16T00:12:53.482Z,928.54
2018-01-16T00:13:06.617Z,928.53
2018-01-16T00:13:19.181Z,928.55
2018-01-16T00:13:31.729Z,928.55
2018-01-16T00:13:45.093Z,928.56
2018-01-16T00:13:58.070Z,928.51
2018-01-16T00:14:11.184Z,928.56
2018-01-16T00:14:24.259Z,928.53
2018-01-16T00:14:36.885Z,928.54
2018-01-16T00:14:49.018Z,928.57
2018-01-16T00:15:01.558Z,928.56
2018-01-16T00:15:13.735Z,928.55
2018-01-16T00:15:26.319Z,928.55
2018-01-16T00:15:39.346Z,928.56
2018-01-16T00:15:51.894Z,928.58
2018-01-16T00:16:04.979Z,928.58
2018-01-16T00:16:18.047Z,928.55
2018-01-16T00:16:30.229Z,928.58
2018-01-16T00:16:42.883Z,928.55
2018-01-16T00:16:55.941Z,928.53
2018-01-16T00:17:08.459Z,928.55
2018-01-16T00:17:21.050Z,928.54
2018-01-16T00:17:34.026Z,928.56
2018-01-16T00:17:47.085Z,928.58
2018-01-16T00:17:59.662Z,928.59
2018-01-16T00:18:12.220Z,928.56
2018-01-16T00:18:25.243Z,928.59
2018-01-16T00:18:38.272Z,928.56
2018-01-16T00:18:50.908Z,928.55
2018-01-16T00:19:03.538Z,928.55
2018-01-16T00:19:16.635Z,928.59
2018-01-16T00:19:29.193Z,928.56
2018-01-16T00:19:42.287Z,928.52
2018-01-16T00:19:54.862Z,928.59
2018-01-16T00:20:07.478Z,928.59
2018-01-16T00:20:20.101Z,928.56
2018-01-16T00:20:32.229Z,928.55
2018-01-16T00:20:45.341Z,928.57
2018-01-16T00:20:58.336Z,928.59
2018-01-16T00:21:10.967Z,928.6
2018-01-16T00:21:23.599Z,928.59
2018-01-16T00:21:36.700Z,928.57
2018-01-16T00:21:49.747Z,928.56
2018-01-16T00:22:01.857Z,928.59
2018-01-16T00:22:14.975Z,928.59
2018-01-16T00:22:28.008Z,928.59
2018-01-16T00:22:41.054Z,928.56
2018-01-16T00:22:54.068Z,928.59
2018-01-16T00:23:06.665Z,928.61
2018-01-16T00:23:19.661Z,928.63
2018-01-16T00:23:32.701Z,928.61
2018-01-16T00:23:45.345Z,928.6
2018-01-16T00:23:58.614Z,928.66
2018-01-16T00:24:11.630Z,928.63
2018-01-16T00:24:24.265Z,928.63
2018-01-16T00:24:37.339Z,928.64
2018-01-16T00:24:50.358Z,928.63
2018-01-16T00:25:03.449Z,928.63
2018-01-16T00:25:15.570Z,928.63
2018-01-16T00:25:28.658Z,928.62
2018-01-16T00:25:41.734Z,928.61
2018-01-16T00:25:54.340Z,928.62
2018-01-16T00:26:07.422Z,928.63
2018-01-16T00:26:19.487Z,928.64
2018-01-16T00:26:32.484Z,928.66
2018-01-16T00:26:45.585Z,928.67
2018-01-16T00:26:58.740Z,928.65
2018-01-16T00:27:11.333Z,928.65
2018-01-16T00:27:24.400Z,928.67
2018-01-16T00:27:37.432Z,928.64
2018-01-16T00:27:49.074Z,928.64
2018-01-16T00:28:02.238Z,928.65
2018-01-16T00:28:14.340Z,928.64
2018-01-16T00:28:27.420Z,928.64
2018-01-16T00:28:40.822Z,928.66
2018-01-16T00:28:53.390Z,928.66
2018-01-16T00:29:06.478Z,928.67
2018-01-16T00:29:19.561Z,928.71
2018-01-16T00:29:32.168Z,928.64
2018-01-16T00:29:45.250Z,928.69
2018-01-16T00:29:58.255Z,928.68
2018-01-16T00:30:10.404Z,928.68
2018-01-16T00:30:22.537Z,928.71
2018-01-16T00:30:35.369Z,928.68
2018-01-16T00:30:47.514Z,928.71
2018-01-16T00:31:00.499Z,928.71
2018-01-16T00:31:13.579Z,928.71
2018-01-16T00:31:26.160Z,928.7
2018-01-16T00:31:38.259Z,928.69
2018-01-16T00:31:51.351Z,928.72
2018-01-16T00:32:04.411Z,928.71
2018-01-16T00:32:17.444Z,928.73
2018-01-16T00:32:30.560Z,928.72
2018-01-16T00:32:43.660Z,928.73
2018-01-16T00:32:56.698Z,928.73
2018-01-16T00:33:08.937Z,928.7
2018-01-16T00:33:21.086Z,928.7
2018-01-16T00:33:33.241Z,928.74
2018-01-16T00:33:46.288Z,928.7
2018-01-16T00:33:58.844Z,928.71
2018-01-16T00:34:11.448Z,928.74
2018-01-16T00:34:24.526Z,928.73
2018-01-16T00:34:37.132Z,928.73
2018-01-16T00:34:50.203Z,928.73
2018-01-16T00:35:02.387Z,928.73
2018-01-16T00:35:15.486Z,928.76
2018-01-16T00:35:28.595Z,928.73
2018-01-16T00:35:40.925Z,928.76
2018-01-16T00:35:54.064Z,928.77
2018-01-16T00:36:07.092Z,928.78
2018-01-16T00:36:19.668Z,928.76
2018-01-16T00:36:31.843Z,928.81
2018-01-16T00:36:44.983Z,928.79
2018-01-16T00:36:58.070Z,928.78
2018-01-16T00:37:11.138Z,928.81
2018-01-16T00:37:23.708Z,928.79
2018-01-16T00:37:36.817Z,928.82
2018-01-16T00:37:48.969Z,928.79
2018-01-16T00:38:01.561Z,928.78
2018-01-16T00:38:14.602Z,928.8
2018-01-16T00:38:27.611Z,928.79
2018-01-16T00:38:40.614Z,928.82
2018-01-16T00:38:52.800Z,928.79
2018-01-16T00:39:05.851Z,928.78
2018-01-16T00:39:18.887Z,928.79
2018-01-16T00:39:31.421Z,928.81
2018-01-16T00:39:44.037Z,928.85
2018-01-16T00:39:57.067Z,928.85
2018-01-16T00:40:09.681Z,928.84
2018-01-16T00:40:22.796Z,928.85
2018-01-16T00:40:34.465Z,928.86
2018-01-16T00:40:47.563Z,928.86
2018-01-16T00:41:00.212Z,928.89
2018-01-16T00:41:13.241Z,928.84
2018-01-16T00:41:26.313Z,928.79
2018-01-16T00:41:39.330Z,928.87
2018-01-16T00:41:52.383Z,928.87
2018-01-16T00:42:04.503Z,928.87
2018-01-16T00:42:17.117Z,928.87
2018-01-16T00:42:29.685Z,928.88
2018-01-16T00:42:42.754Z,928.86
2018-01-16T00:42:55.354Z,928.87
2018-01-16T00:43:07.487Z,928.85
2018-01-16T00:43:20.517Z,928.89
2018-01-16T00:43:33.164Z,928.87
2018-01-16T00:43:46.506Z,928.91
2018-01-16T00:43:59.560Z,928.92
2018-01-16T00:44:11.640Z,928.95
2018-01-16T00:44:24.291Z,928.88
2018-01-16T00:44:35.989Z,928.91
2018-01-16T00:44:48.564Z,928.92
2018-01-16T00:45:01.612Z,928.89
2018-01-16T00:45:14.709Z,928.95
2018-01-16T00:45:27.766Z,928.93
2018-01-16T00:45:40.806Z,928.92
2018-01-16T00:45:53.376Z,928.92
2018-01-16T00:46:06.486Z,928.91
2018-01-16T00:46:19.125Z,928.92
2018-01-16T00:46:31.883Z,928.94
2018-01-16T00:46:43.543Z,928.93
2018-01-16T00:46:55.216Z,928.94
2018-01-16T00:47:07.809Z,928.93
2018-01-16T00:47:20.856Z,928.93
2018-01-16T00:47:33.940Z,928.92
2018-01-16T00:47:46.972Z,928.93
2018-01-16T00:48:00.041Z,928.92
2018-01-16T00:48:12.704Z,928.95
2018-01-16T00:48:25.256Z,928.92
2018-01-16T00:48:38.369Z,928.92
2018-01-16T00:48:50.910Z,928.94
2018-01-16T00:49:03.966Z,928.97
2018-01-16T00:49:17.147Z,928.97
2018-01-16T00:49:30.204Z,928.92
2018-01-16T00:49:43.202Z,928.97
2018-01-16T00:49:56.270Z,928.94
2018-01-16T00:50:09.365Z,928.93
2018-01-16T00:50:22.421Z,928.94
2018-01-16T00:50:35.476Z,928.94
2018-01-16T00:50:48.081Z,928.94
2018-01-16T00:51:00.665Z,928.95
2018-01-16T00:51:13.303Z,928.98
2018-01-16T00:51:25.475Z,928.94
2018-01-16T00:51:37.584Z,928.97
2018-01-16T00:51:50.130Z,928.99
2018-01-16T00:52:03.167Z,928.97
2018-01-16T00:52:14.827Z,928.98
2018-01-16T00:52:27.470Z,928.96
2018-01-16T00:52:40.542Z,928.99
2018-01-16T00:52:53.157Z,928.97
2018-01-16T00:53:05.697Z,928.93
2018-01-16T00:53:18.322Z,928.96
2018-01-16T00:53:31.379Z,928.91
2018-01-16T00:53:43.567Z,929
2018-01-16T00:53:56.559Z,928.96
2018-01-16T00:54:09.587Z,928.96
2018-01-16T00:54:22.658Z,929.02
2018-01-16T00:54:34.770Z,928.96
2018-01-16T00:54:47.371Z,928.98
2018-01-16T00:54:59.972Z,928.98
2018-01-16T00:55:12.056Z,929
2018-01-16T00:55:25.125Z,929
2018-01-16T00:55:38.355Z,928.96
2018-01-16T00:55:50.955Z,928.96
2018-01-16T00:56:04.029Z,929
2018-01-16T00:56:16.604Z,928.98
2018-01-16T00:56:29.641Z,928.94
2018-01-16T00:56:42.681Z,928.99
2018-01-16T00:56:55.252Z,928.98
2018-01-16T00:57:07.421Z,928.98
2018-01-16T00:57:20.429Z,929
2018-01-16T00:57:33.438Z,928.98
2018-01-16T00:57:46.516Z,929
2018-01-16T00:57:59.009Z,928.96
2018-01-16T00:58:11.590Z,928.98
2018-01-16T00:58:24.192Z,928.98
2018-01-16T00:58:37.281Z,928.96
2018-01-16T00:58:49.899Z,928.99
2018-01-16T00:59:02.815Z,929
2018-01-16T00:59:15.411Z,929
2018-01-16T00:59:27.989Z,929.03
2018-01-16T00:59:41.009Z,929
2018-01-16T00:59:54.052Z,928.99
2018-01-16T01:00:06.232Z,928.99
2018-01-16T01:00:18.314Z,929.03
2018-01-16T01:00:30.837Z,928.97
2018-01-16T01:00:42.947Z,928.99
2018-01-16T01:00:55.446Z,929
2018-01-16T01:01:08.061Z,928.99
2018-01-16T01:01:20.186Z,929
2018-01-16T01:01:32.818Z,929
2018-01-16T01:01:45.904Z,929
2018-01-16T01:01:58.502Z,928.98
2018-01-16T01:02:11.609Z,929
2018-01-16T01:02:24.715Z,929
2018-01-16T01:02:36.828Z,929
2018-01-16T01:02:49.786Z,928.99
2018-01-16T01:03:02.882Z,929.03
2018-01-16T01:03:15.898Z,929.02
2018-01-16T01:03:28.503Z,929.03
2018-01-16T01:03:41.080Z,929.01
2018-01-16T01:03:54.142Z,928.98
2018-01-16T01:04:06.301Z,929.04
2018-01-16T01:04:19.394Z,928.99
2018-01-16T01:04:31.503Z,929.01
2018-01-16T01:04:44.583Z,928.99
2018-01-16T01:04:57.208Z,928.99
2018-01-16T01:05:09.773Z,928.97
2018-01-16T01:05:22.431Z,929.03
2018-01-16T01:05:35.488Z,929.01
2018-01-16T01:05:48.532Z,929.03
2018-01-16T01:06:01.118Z,929.03
2018-01-16T01:06:14.150Z,929.02
2018-01-16T01:06:27.204Z,929.05
2018-01-16T01:06:39.816Z,929.06
2018-01-16T01:06:52.849Z,928.98
2018-01-16T01:07:05.998Z,929
2018-01-16T01:07:19.046Z,929.03
2018-01-16T01:07:32.189Z,929
2018-01-16T01:07:45.265Z,929.03
2018-01-16T01:07:58.318Z,929.01
2018-01-16T01:08:11.397Z,929
2018-01-16T01:08:24.455Z,928.97
2018-01-16T01:08:36.990Z,929
2018-01-16T01:08:50.006Z,929.01
2018-01-16T01:09:02.582Z,929.04
2018-01-16T01:09:15.135Z,929.04
2018-01-16T01:09:28.146Z,929.02
2018-01-16T01:09:41.235Z,929.02
2018-01-16T01:09:53.814Z,929.01
2018-01-16T01:10:06.859Z,929.02
2018-01-16T01:10:19.936Z,929.01
2018-01-16T01:10:32.569Z,929.02
2018-01-16T01:10:45.644Z,928.98
2018-01-16T01:10:58.235Z,929.02
2018-01-16T01:11:10.830Z,929.02
2018-01-16T01:11:23.888Z,928.99
2018-01-16T01:11:36.957Z,928.98
2018-01-16T01:11:49.546Z,928.97
2018-01-16T01:12:02.621Z,928.99
2018-01-16T01:12:15.678Z,928.98
2018-01-16T01:12:28.185Z,929.01
2018-01-16T01:12:40.704Z,928.99
2018-01-16T01:12:52.862Z,929.01
2018-01-16T01:13:05.889Z,929
2018-01-16T01:13:18.502Z,929
2018-01-16T01:13:31.092Z,929
2018-01-16T01:13:44.126Z,929
2018-01-16T01:13:57.400Z,928.95
2018-01-16T01:14:09.984Z,928.97
2018-01-16T01:14:23.158Z,928.99
2018-01-16T01:14:36.246Z,929.03
2018-01-16T01:14:48.849Z,928.99
2018-01-16T01:15:01.722Z,928.98
2018-01-16T01:15:14.779Z,929
2018-01-16T01:15:27.760Z,928.96
2018-01-16T01:15:39.881Z,928.97
2018-01-16T01:15:52.988Z,928.97
2018-01-16T01:16:06.122Z,928.94
2018-01-16T01:16:18.695Z,928.98
2018-01-16T01:16:31.768Z,928.95
2018-01-16T01:16:44.322Z,929
2018-01-16T01:16:56.904Z,928.97
2018-01-16T01:17:09.473Z,928.95
2018-01-16T01:17:22.047Z,929.01
2018-01-16T01:17:35.087Z,929
2018-01-16T01:17:48.157Z,928.99
2018-01-16T01:18:00.765Z,929
2018-01-16T01:18:12.414Z,928.96
2018-01-16T01:18:24.996Z,928.99
2018-01-16T01:18:38.052Z,928.91
2018-01-16T01:18:50.683Z,928.98
2018-01-16T01:19:03.310Z,928.95
2018-01-16T01:19:16.454Z,928.96
2018-01-16T01:19:29.468Z,928.95
2018-01-16T01:19:41.595Z,928.94
2018-01-16T01:19:54.839Z,928.94
2018-01-16T01:20:07.895Z,928.94
2018-01-16T01:20:20.531Z,928.94
2018-01-16T01:20:33.048Z,928.94
2018-01-16T01:20:45.678Z,928.94
2018-01-16T01:20:57.298Z,928.96
2018-01-16T01:21:09.405Z,928.94
2018-01-16T01:21:22.449Z,928.95
2018-01-16T01:21:35.100Z,929
2018-01-16T01:21:47.196Z,929
2018-01-16T01:22:00.178Z,929
2018-01-16T01:22:13.221Z,928.99
2018-01-16T01:22:26.274Z,929.01
2018-01-16T01:22:38.933Z,928.98
2018-01-16T01:22:51.530Z,928.98
2018-01-16T01:23:04.059Z,928.99
2018-01-16T01:23:17.137Z,928.99
2018-01-16T01:23:30.163Z,929.02
2018-01-16T01:23:42.693Z,928.98
2018-01-16T01:23:55.260Z,928.97
2018-01-16T01:24:08.356Z,928.98
2018-01-16T01:24:21.452Z,929
2018-01-16T01:24:33.569Z,929
2018-01-16T01:24:46.587Z,929
2018-01-16T01:24:59.584Z,929.01
2018-01-16T01:25:12.158Z,928.95
2018-01-16T01:25:25.281Z,929.02
2018-01-16T01:25:37.387Z,928.99
2018-01-16T01:25:49.934Z,928.99
2018-01-16T01:26:03.017Z,928.98
2018-01-16T01:26:14.646Z,928.97
2018-01-16T01:26:27.266Z,929.01
2018-01-16T01:26:40.344Z,929.01
2018-01-16T01:26:53.414Z,928.98
2018-01-16T01:27:06.480Z,929.02
2018-01-16T01:27:19.534Z,928.99
2018-01-16T01:27:31.643Z,929
2018-01-16T01:27:44.661Z,929.02
2018-01-16T01:27:57.292Z,929.01
2018-01-16T01:28:10.394Z,929.02
2018-01-16T01:28:23.051Z,929.04
2018-01-16T01:28:36.045Z,929.05
2018-01-16T01:28:47.686Z,929.03
2018-01-16T01:29:00.243Z,929.01
2018-01-16T01:29:13.148Z,929.04
2018-01-16T01:29:26.192Z,929.02
2018-01-16T01:29:38.804Z,928.99
2018-01-16T01:29:51.399Z,929.07
2018-01-16T01:30:03.939Z,929.04
2018-01-16T01:30:16.493Z,928.99
2018-01-16T01:30:28.614Z,929.06
2018-01-16T01:30:41.158Z,929.03
2018-01-16T01:30:53.777Z,929.06
2018-01-16T01:31:06.813Z,929.06
2018-01-16T01:31:19.909Z,929.03
2018-01-16T01:31:32.036Z,929.01
2018-01-16T01:31:44.137Z,929.03
2018-01-16T01:31:57.140Z,929.03
2018-01-16T01:32:09.764Z,929.06
2018-01-16T01:32:22.842Z,929.04
2018-01-16T01:32:35.475Z,929.05
2018-01-16T01:32:48.102Z,929.03
2018-01-16T01:33:00.696Z,929.02
2018-01-16T01:33:14.597Z,929.06
2018-01-16T01:33:27.652Z,929.06
2018-01-16T01:33:40.683Z,929.06
2018-01-16T01:33:53.270Z,929.11
2018-01-16T01:34:06.357Z,929.09
2018-01-16T01:34:18.976Z,929.1
2018-01-16T01:34:31.105Z,929.09
2018-01-16T01:34:43.682Z,929.08
2018-01-16T01:34:55.783Z,929.11
2018-01-16T01:35:06.936Z,929.1
2018-01-16T01:35:20.049Z,929.13
2018-01-16T01:35:32.713Z,929.12
2018-01-16T01:35:45.775Z,929.1
2018-01-16T01:35:58.411Z,929.11
2018-01-16T01:36:11.415Z,929.11
2018-01-16T01:36:23.970Z,929.11
2018-01-16T01:36:37.017Z,929.08
2018-01-16T01:36:50.101Z,929.1
2018-01-16T01:37:03.150Z,929.11
2018-01-16T01:37:15.745Z,929.08
2018-01-16T01:37:28.771Z,929.14
2018-01-16T01:37:41.407Z,929.12
2018-01-16T01:37:53.617Z,929.15
2018-01-16T01:38:07.925Z,929.14
2018-01-16T01:38:21.012Z,929.14
2018-01-16T01:38:34.086Z,929.12
2018-01-16T01:38:46.209Z,929.16
2018-01-16T01:38:59.231Z,929.15
2018-01-16T01:39:12.347Z,929.16
2018-01-16T01:39:24.930Z,929.13
2018-01-16T01:39:37.465Z,929.15
2018-01-16T01:39:50.060Z,929.17
2018-01-16T01:40:04.292Z,929.11
2018-01-16T01:40:17.355Z,929.14
2018-01-16T01:40:30.359Z,929.15
2018-01-16T01:40:43.417Z,929.13
2018-01-16T01:40:56.450Z,929.17
2018-01-16T01:41:09.588Z,929.12
2018-01-16T01:41:22.664Z,929.15
2018-01-16T01:41:35.751Z,929.1
2018-01-16T01:41:48.361Z,929.12
2018-01-16T01:42:01.371Z,929.13
2018-01-16T01:42:13.478Z,929.16
2018-01-16T01:42:26.581Z,929.13
2018-01-16T01:42:39.624Z,929.15
2018-01-16T01:42:52.638Z,929.15
2018-01-16T01:43:05.782Z,929.16
2018-01-16T01:43:18.374Z,929.11
2018-01-16T01:43:31.453Z,929.08
2018-01-16T01:43:44.468Z,929.1
2018-01-16T01:43:57.064Z,929.11
2018-01-16T01:44:08.688Z,929.07
2018-01-16T01:44:22.705Z,929.11
2018-01-16T01:44:35.814Z,929.08
2018-01-16T01:44:47.975Z,929.09
2018-01-16T01:45:01.091Z,929.09
2018-01-16T01:45:14.101Z,929.11
2018-01-16T01:45:26.687Z,929.09
2018-01-16T01:45:39.784Z,929.12
2018-01-16T01:45:52.906Z,929.13
2018-01-16T01:46:25.212Z,929.1
2018-01-16T01:46:38.302Z,929.09
2018-01-16T01:46:51.332Z,929.11
2018-01-16T01:47:03.955Z,929.08
2018-01-16T01:47:17.044Z,929.08
2018-01-16T01:47:30.146Z,929.08
2018-01-16T01:47:43.224Z,929.11
2018-01-16T01:47:56.297Z,929.02
2018-01-16T01:48:07.923Z,929.1
2018-01-16T01:48:20.522Z,929.05
2018-01-16T01:48:33.585Z,929.03
2018-01-16T01:48:46.237Z,929.06
2018-01-16T01:48:59.354Z,929.07
2018-01-16T01:49:11.980Z,929.08
2018-01-16T01:49:25.005Z,929.02
2018-01-16T01:49:38.104Z,928.97
2018-01-16T01:49:53.036Z,928.93
2018-01-16T01:50:05.646Z,929.01
2018-01-16T01:50:18.245Z,928.98
2018-01-16T01:50:30.866Z,928.96
2018-01-16T01:50:43.955Z,929
2018-01-16T01:50:56.592Z,928.99
2018-01-16T01:51:09.191Z,928.98
2018-01-16T01:51:21.793Z,928.95
2018-01-16T01:51:34.866Z,928.94
2018-01-16T01:51:47.883Z,929
2018-01-16T01:52:01.011Z,928.99
2018-01-16T01:52:13.586Z,929.01
2018-01-16T01:52:26.661Z,928.98
2018-01-16T01:52:39.201Z,928.96
2018-01-16T01:52:52.227Z,928.96
2018-01-16T01:53:05.319Z,928.95
2018-01-16T01:53:18.334Z,928.93
2018-01-16T01:53:30.854Z,928.96
2018-01-16T01:53:42.541Z,928.92
2018-01-16T01:53:55.109Z,928.91
2018-01-16T01:54:07.698Z,928.95
2018-01-16T01:54:20.777Z,928.97
2018-01-16T01:54:33.882Z,928.94
2018-01-16T01:54:46.935Z,928.9
2018-01-16T01:55:00.032Z,928.93
2018-01-16T01:55:13.041Z,928.96
2018-01-16T01:55:26.066Z,928.97
2018-01-16T01:55:38.158Z,928.95
2018-01-16T01:55:51.170Z,928.93
2018-01-16T01:56:03.734Z,928.88
2018-01-16T01:56:16.851Z,928.93
2018-01-16T01:56:29.475Z,928.96
2018-01-16T01:56:42.508Z,928.94
2018-01-16T01:56:55.111Z,928.88
2018-01-16T01:57:08.146Z,928.95
2018-01-16T01:57:20.758Z,928.94
2018-01-16T01:57:33.330Z,928.92
2018-01-16T01:57:46.108Z,928.9
2018-01-16T01:57:59.166Z,928.88
2018-01-16T01:58:11.791Z,928.98
2018-01-16T01:58:23.901Z,928.92
2018-01-16T01:58:35.996Z,928.98
2018-01-16T01:58:49.066Z,928.94
2018-01-16T01:59:01.611Z,928.95
2018-01-16T01:59:14.236Z,928.91
2018-01-16T01:59:27.260Z,928.96
2018-01-16T01:59:39.836Z,928.89
2018-01-16T01:59:52.425Z,928.94
2018-01-16T02:00:04.957Z,928.89
2018-01-16T02:00:17.518Z,928.91
2018-01-16T02:00:30.566Z,928.98
2018-01-16T02:00:43.083Z,928.95
2018-01-16T02:00:55.643Z,928.94
2018-01-16T02:01:07.768Z,928.9
2018-01-16T02:01:20.797Z,928.88
2018-01-16T02:01:33.809Z,928.88
2018-01-16T02:01:46.806Z,928.86
2018-01-16T02:01:59.844Z,928.9
2018-01-16T02:02:12.475Z,928.91
2018-01-16T02:02:25.520Z,928.9
2018-01-16T02:02:38.594Z,928.9
2018-01-16T02:02:50.740Z,928.92
2018-01-16T02:03:02.987Z,928.87
2018-01-16T02:03:16.012Z,928.91
2018-01-16T02:03:28.579Z,928.91
2018-01-16T02:03:40.217Z,928.9
2018-01-16T02:03:52.340Z,928.94
2018-01-16T02:04:05.396Z,928.93
2018-01-16T02:04:17.956Z,928.87
2018-01-16T02:04:30.971Z,928.98
2018-01-16T02:04:44.071Z,928.92
2018-01-16T02:04:56.683Z,928.96
2018-01-16T02:05:09.234Z,928.92
2018-01-16T02:05:22.258Z,928.99
2018-01-16T02:05:34.880Z,928.97
2018-01-16T02:05:47.524Z,928.96
2018-01-16T02:05:59.630Z,928.96
2018-01-16T02:06:12.743Z,928.99
2018-01-16T02:06:25.318Z,928.96
2018-01-16T02:06:38.411Z,928.96
2018-01-16T02:06:51.004Z,928.93
2018-01-16T02:07:03.573Z,928.95
2018-01-16T02:07:16.607Z,928.92
2018-01-16T02:07:29.123Z,928.95
2018-01-16T02:07:41.220Z,928.94
2018-01-16T02:07:53.818Z,928.96
2018-01-16T02:08:05.952Z,928.92
2018-01-16T02:08:18.534Z,928.98
2018-01-16T02:08:31.119Z,928.98
2018-01-16T02:08:43.706Z,928.96
2018-01-16T02:08:56.336Z,928.98
2018-01-16T02:09:09.374Z,928.97
2018-01-16T02:09:22.070Z,928.91
2018-01-16T02:09:34.669Z,928.94
2018-01-16T02:09:47.341Z,928.96
2018-01-16T02:09:59.885Z,928.93
2018-01-16T02:10:12.217Z,928.95
2018-01-16T02:10:25.319Z,928.98
2018-01-16T02:10:38.323Z,928.95
2018-01-16T02:10:50.931Z,928.97
2018-01-16T02:11:03.524Z,928.95
2018-01-16T02:11:16.573Z,928.98
2018-01-16T02:11:29.107Z,928.91
2018-01-16T02:11:42.174Z,928.94
2018-01-16T02:11:55.229Z,929
2018-01-16T02:12:07.259Z,928.97
2018-01-16T02:12:19.867Z,928.99
2018-01-16T02:12:33.882Z,929
2018-01-16T02:12:46.528Z,928.96
2018-01-16T02:12:59.109Z,929
2018-01-16T02:13:11.770Z,928.98
2018-01-16T02:13:24.809Z,928.98
2018-01-16T02:13:37.979Z,929
2018-01-16T02:13:51.005Z,928.97
2018-01-16T02:14:04.084Z,928.98
2018-01-16T02:14:16.635Z,928.99
2018-01-16T02:14:30.377Z,928.99
2018-01-16T02:14:42.484Z,929
2018-01-16T02:14:55.537Z,929
2018-01-16T02:15:08.532Z,928.97
2018-01-16T02:15:20.623Z,929.02
2018-01-16T02:15:33.736Z,928.98
2018-01-16T02:15:46.859Z,928.96
2018-01-16T02:15:59.451Z,928.99
2018-01-16T02:16:12.505Z,928.99
2018-01-16T02:16:25.121Z,928.98
2018-01-16T02:16:38.168Z,928.99
2018-01-16T02:16:50.338Z,928.93
2018-01-16T02:17:02.937Z,928.99
2018-01-16T02:17:16.097Z,928.96
2018-01-16T02:17:29.160Z,929
2018-01-16T02:17:42.225Z,928.95
2018-01-16T02:17:55.270Z,929.01
2018-01-16T02:18:07.900Z,929
2018-01-16T02:18:20.939Z,928.98
2018-01-16T02:18:33.988Z,929
2018-01-16T02:18:46.634Z,929.02
2018-01-16T02:18:59.416Z,928.99
2018-01-16T02:19:12.014Z,929.05
2018-01-16T02:19:25.035Z,928.96
2018-01-16T02:19:37.621Z,929.05
2018-01-16T02:19:49.973Z,929.02
2018-01-16T02:20:02.594Z,929.02
2018-01-16T02:20:15.697Z,928.97
2018-01-16T02:20:27.791Z,928.99
2018-01-16T02:20:40.866Z,928.97
2018-01-16T02:20:53.972Z,928.98
2018-01-16T02:21:07.011Z,929
2018-01-16T02:21:19.578Z,928.94
2018-01-16T02:21:32.604Z,928.97
2018-01-16T02:21:45.667Z,928.95
2018-01-16T02:21:58.213Z,928.98
2018-01-16T02:22:10.355Z,928.95
2018-01-16T02:22:22.988Z,928.93
2018-01-16T02:22:36.047Z,928.96
2018-01-16T02:22:47.663Z,928.96
2018-01-16T02:23:00.750Z,928.95
2018-01-16T02:23:13.716Z,928.96
2018-01-16T02:23:26.305Z,928.95
2018-01-16T02:23:38.504Z,928.96
2018-01-16T02:23:51.073Z,928.94
2018-01-16T02:24:03.826Z,928.92
2018-01-16T02:24:16.408Z,928.96
2018-01-16T02:24:28.486Z,928.91
2018-01-16T02:24:41.516Z,928.9
2018-01-16T02:24:54.094Z,928.88
2018-01-16T02:25:06.181Z,928.89
2018-01-16T02:25:18.490Z,928.87
2018-01-16T02:25:31.006Z,928.84
2018-01-16T02:25:44.069Z,928.81
2018-01-16T02:25:57.208Z,928.87
2018-01-16T02:26:10.307Z,928.81
2018-01-16T02:26:22.899Z,928.84
2018-01-16T02:26:35.875Z,928.81
2018-01-16T02:26:48.038Z,928.8
2018-01-16T02:27:00.103Z,928.81
2018-01-16T02:27:12.651Z,928.77
2018-01-16T02:27:25.220Z,928.79
2018-01-16T02:27:38.312Z,928.77
2018-01-16T02:27:50.867Z,928.77
2018-01-16T02:28:03.942Z,928.79
2018-01-16T02:28:17.068Z,928.75
2018-01-16T02:28:29.160Z,928.82
2018-01-16T02:28:41.683Z,928.79
2018-01-16T02:28:53.881Z,928.8
2018-01-16T02:29:06.949Z,928.81
2018-01-16T02:29:19.923Z,928.81
2018-01-16T02:29:32.967Z,928.84
2018-01-16T02:29:46.012Z,928.82
2018-01-16T02:29:58.586Z,928.79
2018-01-16T02:30:11.649Z,928.81
2018-01-16T02:30:24.240Z,928.77
2018-01-16T02:30:37.266Z,928.78
2018-01-16T02:30:49.805Z,928.77
2018-01-16T02:31:02.336Z,928.77
2018-01-16T02:31:15.338Z,928.8
2018-01-16T02:31:28.372Z,928.81
2018-01-16T02:31:40.914Z,928.82
2018-01-16T02:31:53.502Z,928.83
2018-01-16T02:32:06.163Z,928.86
2018-01-16T02:32:17.832Z,928.86
2018-01-16T02:32:30.967Z,928.84
2018-01-16T02:32:43.977Z,928.85
2018-01-16T02:32:57.054Z,928.86
2018-01-16T02:33:09.169Z,928.9
2018-01-16T02:33:22.256Z,928.89
2018-01-16T02:33:35.252Z,928.88
2018-01-16T02:33:47.873Z,928.92
2018-01-16T02:34:00.055Z,928.96
2018-01-16T02:34:12.201Z,928.96
2018-01-16T02:34:25.309Z,928.98
2018-01-16T02:34:37.849Z,928.96
2018-01-16T02:34:49.936Z,928.95
2018-01-16T02:35:02.077Z,928.99
2018-01-16T02:35:15.081Z,929
2018-01-16T02:35:28.120Z,928.98
2018-01-16T02:35:41.206Z,929.01
2018-01-16T02:35:54.330Z,928.99
2018-01-16T02:36:06.871Z,929
2018-01-16T02:36:19.474Z,929.01
2018-01-16T02:36:32.089Z,929.03
2018-01-16T02:36:45.137Z,929.04
2018-01-16T02:36:57.316Z,929.03
2018-01-16T02:37:10.354Z,929.06
2018-01-16T02:37:23.387Z,929.02
2018-01-16T02:37:36.427Z,929.04
2018-01-16T02:37:49.055Z,929.06
2018-01-16T02:38:01.124Z,929.04
2018-01-16T02:38:14.166Z,929.07
2018-01-16T02:38:27.189Z,929.1
2018-01-16T02:38:39.726Z,929.1
2018-01-16T02:38:52.782Z,929.09
2018-01-16T02:39:05.858Z,929.12
2018-01-16T02:39:18.873Z,929.07
2018-01-16T02:39:31.504Z,929.09
2018-01-16T02:39:44.827Z,929.12
2018-01-16T02:39:57.425Z,929.1
2018-01-16T02:40:09.090Z,929.1
2018-01-16T02:40:22.139Z,929.12
2018-01-16T02:40:35.269Z,929.16
2018-01-16T02:40:47.876Z,929.12
2018-01-16T02:41:00.471Z,929.14